Time;durP1;ratioP1;P1;durP2;ratioP2;P2;SDS_P1;SDS_P2;PMS_P1;PMS_P2;Temp;Humidity;BMP_temperature;BMP_pressure;BME280_temperature;BME280_humidity;BME280_pressure;Samples;Min_cycle;Max_cycle;Signal;HPM_P1;HPM_P2
2022/09/29 04:01:15;;;;;;;2.77;2.43;;;;;;;;;;5653096;22;20987;-81
2022/09/29 04:03:40;;;;;;;3.75;2.70;;;;;;;;;;4990040;28;20423;-83
2022/09/29 04:06:06;;;;;;;2.50;2.30;;;;;;;;;;5000475;28;20393;-83
2022/09/29 04:08:36;;;;;;;3.47;3.17;;;;;;;;;;4991522;28;21119;-83
2022/09/29 04:11:02;;;;;;;3.30;3.00;;;;;;;;;;5058890;28;20403;-84
2022/09/29 04:13:28;;;;;;;3.05;2.80;;;;;;;;;;4991611;28;20875;-83
2022/09/29 04:15:57;;;;;;;3.10;2.80;;;;;;;;;;4991623;28;20435;-83
2022/09/29 04:18:23;;;;;;;2.83;2.53;;;;;;;;;;4991885;28;20410;-83
2022/09/29 04:20:50;;;;;;;2.50;2.30;;;;;;;;;;4987768;28;20485;-83
2022/09/29 04:23:16;;;;;;;2.70;2.50;;;;;;;;;;4991902;28;20394;-83
2022/09/29 04:25:44;;;;;;;3.00;2.70;;;;;;;;;;4991584;28;20383;-84
2022/09/29 04:28:10;;;;;;;2.60;2.40;;;;;;;;;;4991373;28;20383;-83
2022/09/29 04:30:36;;;;;;;3.55;3.25;;;;;;;;;;4991290;28;20438;-84
2022/09/29 04:33:03;;;;;;;20.75;15.07;;;;;;;;;;4991491;28;20731;-83
2022/09/29 04:35:29;;;;;;;5.78;4.75;;;;;;;;;;4991144;28;20387;-84
2022/09/29 04:37:58;;;;;;;3.83;3.40;;;;;;;;;;4990260;28;20475;-84
2022/09/29 04:40:25;;;;;;;4.40;4.00;;;;;;;;;;4991096;28;20382;-81
2022/09/29 04:42:51;;;;;;;5.50;4.43;;;;;;;;;;4991073;28;20418;-84
2022/09/29 04:45:17;;;;;;;4.50;4.10;;;;;;;;;;4991019;28;20398;-84
2022/09/29 04:47:43;;;;;;;4.38;3.97;;;;;;;;;;4975438;28;20884;-83
2022/09/29 04:50:09;;;;;;;4.05;3.75;;;;;;;;;;4971509;28;20396;-83
2022/09/29 04:52:35;;;;;;;4.00;3.70;;;;;;;;;;4969382;28;20419;-83
2022/09/29 04:55:02;;;;;;;4.05;3.75;;;;;;;;;;4971856;28;20403;-83
2022/09/29 04:57:28;;;;;;;3.75;3.50;;;;;;;;;;4971411;28;20389;-83
2022/09/29 04:59:54;;;;;;;4.67;4.37;;;;;;;;;;4971276;28;20430;-83
2022/09/29 05:02:21;;;;;;;4.93;4.10;;;;;;;;;;4971262;28;20408;-83
2022/09/29 05:04:47;;;;;;;4.40;4.00;;;;;;;;;;4971585;28;20392;-83
2022/09/29 05:07:13;;;;;;;4.57;4.27;;;;;;;;;;4971310;28;20388;-83
2022/09/29 05:09:39;;;;;;;5.43;4.93;;;;;;;;;;4968362;28;20380;-83
2022/09/29 05:12:05;;;;;;;5.45;5.05;;;;;;;;;;5041949;28;20856;-83
2022/09/29 05:14:31;;;;;;;6.07;5.63;;;;;;;;;;4968979;28;20398;-81
2022/09/29 05:16:58;;;;;;;6.40;5.90;;;;;;;;;;4971247;28;20396;-82
2022/09/29 05:19:24;;;;;;;7.10;6.50;;;;;;;;;;4970358;28;20470;-83
2022/09/29 05:21:50;;;;;;;6.28;5.70;;;;;;;;;;4971290;28;20414;-84
2022/09/29 05:24:16;;;;;;;6.00;5.60;;;;;;;;;;4966911;28;20716;-82
2022/09/29 05:26:42;;;;;;;6.28;5.72;;;;;;;;;;4958671;28;20385;-81
2022/09/29 05:29:08;;;;;;;6.22;5.72;;;;;;;;;;4971364;28;20418;-82
2022/09/29 05:31:34;;;;;;;6.22;5.72;;;;;;;;;;4970959;28;20450;-82
2022/09/29 05:34:00;;;;;;;6.40;5.90;;;;;;;;;;4971029;28;20388;-84
2022/09/29 05:36:25;;;;;;;6.53;6.03;;;;;;;;;;4970889;28;20465;-81
2022/09/29 05:38:51;;;;;;;6.70;5.95;;;;;;;;;;4970562;28;20422;-85
2022/09/29 05:41:21;;;;;;;6.55;6.05;;;;;;;;;;4964916;28;20388;-82
2022/09/29 05:43:47;;;;;;;6.27;5.73;;;;;;;;;;4969660;28;20471;-82
2022/09/29 05:46:15;;;;;;;6.97;6.28;;;;;;;;;;4970790;28;20450;-82
2022/09/29 05:48:42;;;;;;;6.30;5.80;;;;;;;;;;4970787;28;20422;-82
2022/09/29 05:51:12;;;;;;;6.93;6.32;;;;;;;;;;4970767;28;20583;-82
2022/09/29 05:53:39;;;;;;;7.28;6.68;;;;;;;;;;4970707;28;20388;-83
2022/09/29 05:56:06;;;;;;;7.68;6.97;;;;;;;;;;4973754;28;20885;-83
2022/09/29 05:58:32;;;;;;;7.22;6.57;;;;;;;;;;4981765;28;20423;-84
2022/09/29 06:00:58;;;;;;;6.95;6.35;;;;;;;;;;4970431;28;20395;-83
2022/09/29 06:03:24;;;;;;;7.47;6.70;;;;;;;;;;4969226;28;20862;-84
2022/09/29 06:05:50;;;;;;;7.63;6.93;;;;;;;;;;4956572;28;20442;-83
2022/09/29 06:08:16;;;;;;;7.57;6.50;;;;;;;;;;4970559;28;20903;-83
2022/09/29 06:10:42;;;;;;;7.90;7.15;;;;;;;;;;4970457;28;20400;-83
2022/09/29 06:13:08;;;;;;;7.68;6.97;;;;;;;;;;4970344;28;20380;-83
2022/09/29 06:15:34;;;;;;;8.43;7.72;;;;;;;;;;4984917;28;20379;-84
2022/09/29 06:18:00;;;;;;;8.32;7.63;;;;;;;;;;4989887;28;20466;-83
2022/09/29 06:20:26;;;;;;;8.35;7.65;;;;;;;;;;4989692;28;20448;-82
2022/09/29 06:22:55;;;;;;;7.70;7.00;;;;;;;;;;4989824;28;20387;-82
2022/09/29 06:25:22;;;;;;;8.70;7.90;;;;;;;;;;4989844;28;20923;-83
2022/09/29 06:27:48;;;;;;;7.57;6.88;;;;;;;;;;4989744;28;20390;-82
2022/09/29 06:30:14;;;;;;;8.90;8.10;;;;;;;;;;4989939;28;20739;-82
2022/09/29 06:32:40;;;;;;;8.10;7.40;;;;;;;;;;4965326;28;20398;-83
2022/09/29 06:37:55;;;;;;;7.85;7.13;;;;;;;;;;4969545;28;20753;-82
2022/09/29 06:40:22;;;;;;;7.68;6.95;;;;;;;;;;4969705;28;20444;-82
2022/09/29 06:42:48;;;;;;;7.65;6.15;;;;;;;;;;4969544;28;20381;-82
2022/09/29 06:45:15;;;;;;;6.90;6.30;;;;;;;;;;4969052;28;20427;-82
2022/09/29 06:47:41;;;;;;;7.80;7.10;;;;;;;;;;4978815;28;20399;-82
2022/09/29 06:50:08;;;;;;;7.35;6.75;;;;;;;;;;4969957;28;20446;-83
2022/09/29 06:52:34;;;;;;;7.35;6.65;;;;;;;;;;4970004;28;20442;-83
2022/09/29 06:55:00;;;;;;;7.30;6.70;;;;;;;;;;4970175;28;20388;-82
2022/09/29 06:57:26;;;;;;;7.60;6.90;;;;;;;;;;4969304;28;20873;-83
2022/09/29 06:59:52;;;;;;;9.70;8.70;;;;;;;;;;4969827;28;20419;-83
2022/09/29 07:02:18;;;;;;;8.27;7.50;;;;;;;;;;4971624;28;20412;-83
2022/09/29 07:04:46;;;;;;;9.40;8.63;;;;;;;;;;4977901;28;20404;-83
2022/09/29 07:07:12;;;;;;;8.95;8.15;;;;;;;;;;4973274;28;20385;-83
2022/09/29 07:09:38;;;;;;;8.40;7.65;;;;;;;;;;4973223;28;20880;-83
2022/09/29 07:12:04;;;;;;;87.70;57.55;;;;;;;;;;4972857;28;20387;-83
2022/09/29 07:14:31;;;;;;;10.90;9.82;;;;;;;;;;4973102;28;20388;-83
2022/09/29 07:16:58;;;;;;;8.75;7.95;;;;;;;;;;4973076;28;20396;-83
2022/09/29 07:19:24;;;;;;;9.20;8.43;;;;;;;;;;4972876;28;20420;-83
2022/09/29 07:21:50;;;;;;;7.57;6.97;;;;;;;;;;4973352;28;20422;-82
2022/09/29 07:24:16;;;;;;;8.10;7.30;;;;;;;;;;4976992;28;20388;-83
2022/09/29 07:26:43;;;;;;;9.63;8.75;;;;;;;;;;4971733;28;20392;-83
2022/09/29 07:29:09;;;;;;;8.65;7.90;;;;;;;;;;4972254;28;20384;-82
2022/09/29 07:31:35;;;;;;;7.63;6.93;;;;;;;;;;4972047;28;20392;-83
2022/09/29 07:34:01;;;;;;;7.40;6.80;;;;;;;;;;4973863;28;20392;-81
2022/09/29 07:36:27;;;;;;;7.75;7.15;;;;;;;;;;4975622;28;20391;-81
2022/09/29 07:38:53;;;;;;;8.82;8.00;;;;;;;;;;4976395;28;20804;-81
2022/09/29 07:41:20;;;;;;;8.95;8.15;;;;;;;;;;4976180;28;20472;-83
2022/09/29 07:43:46;;;;;;;9.13;8.43;;;;;;;;;;4972641;28;20380;-82
2022/09/29 07:46:12;;;;;;;8.43;7.73;;;;;;;;;;4972022;28;20444;-82
2022/09/29 07:48:39;;;;;;;9.52;8.73;;;;;;;;;;4972670;28;20457;-82
2022/09/29 07:51:05;;;;;;;9.52;8.63;;;;;;;;;;4972409;28;20437;-82
2022/09/29 07:53:31;;;;;;;9.30;8.40;;;;;;;;;;4972512;28;20392;-82
2022/09/29 07:56:04;;;;;;;8.90;8.10;;;;;;;;;;4972216;28;20816;-82
2022/09/29 07:58:31;;;;;;;9.20;8.30;;;;;;;;;;4971667;28;20416;-82
2022/09/29 08:00:57;;;;;;;9.20;8.30;;;;;;;;;;4970958;28;20384;-82
2022/09/29 08:03:25;;;;;;;8.73;7.93;;;;;;;;;;4972077;28;20423;-81
2022/09/29 08:05:51;;;;;;;8.98;8.20;;;;;;;;;;4971479;28;20384;-82
2022/09/29 08:08:18;;;;;;;8.57;7.88;;;;;;;;;;4972118;28;20388;-84
2022/09/29 08:10:43;;;;;;;9.60;8.70;;;;;;;;;;4972120;28;20853;-82
2022/09/29 08:13:09;;;;;;;9.50;8.70;;;;;;;;;;4971295;28;20464;-83
2022/09/29 08:15:35;;;;;;;8.20;7.50;;;;;;;;;;4971669;28;20394;-83
2022/09/29 08:18:01;;;;;;;8.67;7.97;;;;;;;;;;4972350;28;20385;-83
2022/09/29 08:20:27;;;;;;;9.45;8.75;;;;;;;;;;4970931;28;20427;-83
2022/09/29 08:22:55;;;;;;;10.45;9.52;;;;;;;;;;4972134;28;20491;-83
2022/09/29 08:25:24;;;;;;;9.23;8.45;;;;;;;;;;4972125;28;20400;-83
2022/09/29 08:27:50;;;;;;;9.18;8.38;;;;;;;;;;4971997;28;20395;-83
2022/09/29 08:30:17;;;;;;;9.00;8.20;;;;;;;;;;4972002;28;20385;-83
2022/09/29 08:32:43;;;;;;;8.80;8.07;;;;;;;;;;4971255;28;20861;-83
2022/09/29 08:35:09;;;;;;;9.25;8.52;;;;;;;;;;4971508;28;20392;-83
2022/09/29 08:37:37;;;;;;;9.13;8.43;;;;;;;;;;4971250;28;20955;-83
2022/09/29 08:40:03;;;;;;;10.00;9.20;;;;;;;;;;4971346;28;20412;-83
2022/09/29 08:42:48;;;;;;;9.20;8.40;;;;;;;;;;4971778;28;20395;-83
2022/09/29 08:45:18;;;;;;;8.48;7.68;;;;;;;;;;4971005;28;20396;-83
2022/09/29 08:47:45;;;;;;;8.90;8.10;;;;;;;;;;4971119;28;20393;-83
2022/09/29 08:50:16;;;;;;;8.57;7.78;;;;;;;;;;4971168;28;20388;-83
2022/09/29 08:52:44;;;;;;;9.00;7.88;;;;;;;;;;4957211;28;20394;-83
2022/09/29 08:55:16;;;;;;;8.55;7.85;;;;;;;;;;4969968;28;20396;-83
2022/09/29 08:57:42;;;;;;;8.60;7.80;;;;;;;;;;5038014;28;20384;-83
2022/09/29 09:00:16;;;;;;;8.20;7.50;;;;;;;;;;4970643;28;20420;-82
2022/09/29 09:02:50;;;;;;;9.05;8.25;;;;;;;;;;4970821;28;20479;-84
2022/09/29 09:05:35;;;;;;;8.43;7.72;;;;;;;;;;4970865;28;20475;-83
2022/09/29 09:08:03;;;;;;;8.77;8.00;;;;;;;;;;4970864;28;20420;-83
2022/09/29 09:10:29;;;;;;;8.65;7.85;;;;;;;;;;4971058;28;20412;-83
2022/09/29 09:13:02;;;;;;;7.60;7.00;;;;;;;;;;4971345;28;20420;-83
2022/09/29 09:15:34;;;;;;;7.60;7.00;;;;;;;;;;4970981;28;20937;-85
2022/09/29 09:18:21;;;;;;;7.68;6.97;;;;;;;;;;4970056;28;20401;-83
2022/09/29 09:20:53;;;;;;;7.85;7.25;;;;;;;;;;5037482;28;20400;-83
2022/09/29 09:23:20;;;;;;;8.93;8.18;;;;;;;;;;4971320;28;20393;-85
2022/09/29 09:25:58;;;;;;;8.52;7.72;;;;;;;;;;4970780;28;20388;-85
2022/09/29 09:28:27;;;;;;;7.70;7.10;;;;;;;;;;4971578;28;20392;-86
2022/09/29 09:31:02;;;;;;;7.68;6.97;;;;;;;;;;4970540;28;20400;-84
2022/09/29 09:33:52;;;;;;;33.75;26.23;;;;;;;;;;5036003;28;20399;-86
2022/09/29 09:36:20;;;;;;;8.90;8.10;;;;;;;;;;4971197;28;20396;-84
2022/09/29 09:38:54;;;;;;;19.20;7.80;;;;;;;;;;4970355;28;20888;-84
2022/09/29 09:41:22;;;;;;;6.88;6.35;;;;;;;;;;4971056;28;20396;-84
2022/09/29 09:43:51;;;;;;;7.30;6.45;;;;;;;;;;4971211;28;20884;-85
2022/09/29 09:46:17;;;;;;;6.65;6.15;;;;;;;;;;4970836;28;20392;-85
2022/09/29 09:48:49;;;;;;;7.60;6.90;;;;;;;;;;4971646;28;20403;-84
2022/09/29 09:51:23;;;;;;;7.65;7.03;;;;;;;;;;4970890;28;20384;-85
2022/09/29 09:53:52;;;;;;;7.38;6.78;;;;;;;;;;4971160;28;20388;-86
2022/09/29 09:56:27;;;;;;;8.60;7.80;;;;;;;;;;4971072;28;20392;-86
2022/09/29 09:59:05;;;;;;;8.70;7.93;;;;;;;;;;4971241;28;20415;-86
2022/09/29 10:01:31;;;;;;;8.13;7.32;;;;;;;;;;4971074;28;20400;-87
2022/09/29 10:03:58;;;;;;;10.80;9.88;;;;;;;;;;4970611;28;20399;-85
2022/09/29 10:06:24;;;;;;;8.02;7.32;;;;;;;;;;4970990;28;20442;-85
2022/09/29 10:08:50;;;;;;;8.00;7.40;;;;;;;;;;4970334;28;20388;-85
2022/09/29 10:11:26;;;;;;;8.00;7.30;;;;;;;;;;4974165;28;20394;-87
2022/09/29 10:13:58;;;;;;;6.00;5.40;;;;;;;;;;4990003;28;20383;-84
2022/09/29 10:16:28;;;;;;;5.80;5.20;;;;;;;;;;4990642;28;20379;-85
2022/09/29 10:18:54;;;;;;;5.05;4.55;;;;;;;;;;4989948;28;20414;-85
2022/09/29 10:21:35;;;;;;;4.95;4.55;;;;;;;;;;4989864;28;20383;-85
2022/09/29 10:24:03;;;;;;;4.80;4.40;;;;;;;;;;4989977;28;20387;-86
2022/09/29 10:26:33;;;;;;;7.00;6.25;;;;;;;;;;4989821;28;20470;-86
2022/09/29 10:29:18;;;;;;;7.90;7.13;;;;;;;;;;4989870;28;20402;-85
2022/09/29 10:31:56;;;;;;;5.70;5.20;;;;;;;;;;4989579;28;20938;-85
2022/09/29 10:34:24;;;;;;;5.97;5.47;;;;;;;;;;4989827;28;20394;-85
2022/09/29 10:36:55;;;;;;;7.28;6.57;;;;;;;;;;4990897;28;20395;-86
2022/09/29 10:39:33;;;;;;;7.82;7.13;;;;;;;;;;4975090;28;20428;-86
2022/09/29 10:42:00;;;;;;;6.35;5.75;;;;;;;;;;4973164;28;20726;-84
2022/09/29 10:44:30;;;;;;;7.47;6.18;;;;;;;;;;4973021;28;20392;-85
2022/09/29 10:46:56;;;;;;;10.25;9.30;;;;;;;;;;4966257;28;20445;-85
2022/09/29 10:49:24;;;;;;;31.90;20.80;;;;;;;;;;4972760;28;20471;-86
2022/09/29 10:51:56;;;;;;;9.55;8.55;;;;;;;;;;4973358;28;20415;-85
2022/09/29 10:54:26;;;;;;;9.13;7.65;;;;;;;;;;4973291;28;20384;-86
2022/09/29 10:56:53;;;;;;;8.82;5.78;;;;;;;;;;4973456;28;20524;-85
2022/09/29 10:59:19;;;;;;;63.60;32.70;;;;;;;;;;4973061;28;20412;-86
2022/09/29 11:01:49;;;;;;;8.73;6.75;;;;;;;;;;4973319;28;20734;-86
2022/09/29 11:04:21;;;;;;;7.28;6.57;;;;;;;;;;4972996;28;20381;-87
2022/09/29 11:06:48;;;;;;;10.50;8.47;;;11.70;99.90;;;;;;4973312;28;20497;-87
2022/09/29 11:09:17;;;;;;;15.93;11.15;;;12.20;99.90;;;;;;4972645;28;20400;-86
2022/09/29 11:11:48;;;;;;;15.57;10.95;;;11.60;99.90;;;;;;4973181;28;20411;-86
2022/09/29 11:14:35;;;;;;;10.05;7.93;;;11.60;99.90;;;;;;4971731;28;20422;-85
2022/09/29 11:17:18;;;;;;;4.07;3.58;;;11.60;99.90;;;;;;4974823;28;20755;-85
2022/09/29 11:19:43;;;;;;;7.80;4.80;;;11.70;99.90;;;;;;4972758;28;20445;-85
2022/09/29 11:22:15;;;;;;;4.70;4.15;;;11.80;99.90;;;;;;4971889;28;20818;-84
2022/09/29 11:24:56;;;;;;;4.30;3.90;;;;;;;;;;4971305;28;20431;-84
2022/09/29 11:27:31;;;;;;;5.35;4.82;;;;;;;;;;4973902;28;20384;-86
2022/09/29 11:29:57;;;;;;;2.90;2.60;;;;;;;;;;4971593;28;20387;-85
2022/09/29 11:32:23;;;;;;;3.58;3.28;;;;;;;;;;4971649;28;20392;-86
2022/09/29 11:34:49;;;;;;;3.63;3.03;;;;;;;;;;4971748;28;20380;-85
2022/09/29 11:37:35;;;;;;;2.63;2.27;;;;;;;;;;4971956;28;20415;-85
2022/09/29 11:40:09;;;;;;;4.22;2.70;;;;;;;;;;4971735;28;20944;-86
2022/09/29 11:42:47;;;;;;;4.28;3.40;;;;;;;;;;4975668;28;20807;-85
2022/09/29 11:45:17;;;;;;;4.13;3.73;;;;;;;;;;4971221;28;20393;-86
2022/09/29 11:47:43;;;;;;;3.57;2.80;;;;;;;;;;4968661;28;20376;-85
2022/09/29 11:50:23;;;;;;;3.92;2.70;;;;;;;;;;4971679;28;20411;-85
2022/09/29 11:52:52;;;;;;;3.33;2.88;;;;;;;;;;4972003;28;20392;-86
2022/09/29 11:55:42;;;;;;;2.70;2.22;;;;;;;;;;4970442;28;20399;-86
2022/09/29 11:58:22;;;;;;;6.03;4.40;;;;;;;;;;4964082;28;20380;-86
2022/09/29 12:01:01;;;;;;;6.32;4.80;;;;;;;;;;4971266;28;20396;-86
2022/09/29 12:03:34;;;;;;;7.90;5.80;;;;;;;;;;4971240;28;20492;-86
2022/09/29 12:06:19;;;;;;;4.07;2.55;;;;;;;;;;4945152;28;20398;-86
2022/09/29 12:08:47;;;;;;;2.53;1.50;;;;;;;;;;4963284;28;20389;-86
2022/09/29 12:11:43;;;;;;;1.50;1.20;;;;;;;;;;4971288;28;20468;-86
2022/09/29 12:14:10;;;;;;;2.63;1.90;;;;;;;;;;4983754;28;20406;-86
2022/09/29 12:16:38;;;;;;;1.30;1.00;;;;;;;;;;4970886;28;20399;-84
2022/09/29 12:19:12;;;;;;;1.30;1.08;;;;;;;;;;4953944;28;20416;-86
2022/09/29 12:21:41;;;;;;;5.88;1.77;;;;;;;;;;4972028;28;20397;-85
2022/09/29 12:24:12;;;;;;;1.35;1.02;;;;;;;;;;4971775;28;20385;-85
2022/09/29 12:26:39;;;;;;;1.30;0.70;;;;;;;;;;4971022;28;20389;-85
2022/09/29 12:29:15;;;;;;;1.48;0.80;;;;;;;;;;4971529;28;20451;-85
2022/09/29 12:31:45;;;;;;;0.70;0.50;;;;;;;;;;4970759;28;20400;-84
2022/09/29 12:34:33;;;;;;;0.90;0.70;;;;;;;;;;4972074;28;20451;-84
2022/09/29 12:37:02;;;;;;;0.95;0.50;;;;;;;;;;4971452;28;20384;-84
2022/09/29 12:39:49;;;;;;;2.30;0.90;;;;;;;;;;4971129;28;20412;-85
2022/09/29 12:42:21;;;;;;;2.35;0.70;;;;;;;;;;4968877;28;20443;-85
2022/09/29 12:44:54;;;;;;;4.50;1.00;;;;;;;;;;4971682;28;20773;-85
2022/09/29 12:47:20;;;;;;;5.00;0.90;;;;;;;;;;4971467;28;20389;-85
2022/09/29 12:50:00;;;;;;;1.05;0.80;;;;;;;;;;4971424;28;20480;-85
2022/09/29 12:52:34;;;;;;;1.83;0.68;;;;;;;;;;4969415;28;20416;-86
2022/09/29 12:55:02;;;;;;;1.60;0.70;;;;;;;;;;4973409;28;20432;-86
2022/09/29 12:57:31;;;;;;;0.70;0.60;;;;;;;;;;4978726;28;20400;-87
2022/09/29 13:00:00;;;;;;;1.80;1.10;;;;;;;;;;4974243;28;20412;-85
2022/09/29 13:03:02;;;;;;;1.17;0.70;;;;;;;;;;4971463;28;20759;-87
2022/09/29 13:05:32;;;;;;;1.73;0.80;;;;;;;;;;5001037;28;21040;-87
2022/09/29 13:08:04;;;;;;;1.45;0.80;;;;;;;;;;4977609;28;20874;-85
2022/09/29 13:10:39;;;;;;;2.25;1.10;;;;;;;;;;5037455;28;20400;-86
2022/09/29 13:13:08;;;;;;;0.98;0.80;;;;;;;;;;5030980;28;20404;-85
2022/09/29 13:15:53;;;;;;;1.13;0.82;;;;;;;;;;4971267;28;20804;-84
2022/09/29 13:18:24;;;;;;;0.88;0.70;;;;;;;;;;4971336;28;20442;-86
2022/09/29 13:20:51;;;;;;;1.30;1.05;;;;;;;;;;4961380;28;20465;-85
2022/09/29 13:23:17;;;;;;;1.50;1.10;;;;;;;;;;4964373;28;20435;-83
2022/09/29 13:25:43;;;;;;;1.15;0.90;;;;;;;;;;4972297;28;20389;-87
2022/09/29 13:28:38;;;;;;;0.60;0.60;;;;;;;;;;4971484;28;20800;-86
2022/09/29 13:31:06;;;;;;;1.67;1.00;;;;;;;;;;4974261;28;20396;-88
2022/09/29 13:33:33;;;;;;;1.30;0.90;;;;;;;;;;4971278;28;20459;-88
2022/09/29 13:35:59;;;;;;;1.40;1.02;;;;;;;;;;4970056;28;20388;-86
2022/09/29 13:38:25;;;;;;;2.25;1.20;;;;;;;;;;4971262;28;20479;-87
2022/09/29 13:41:09;;;;;;;7.65;5.72;;;;;;;;;;4970977;28;20908;-87
2022/09/29 13:43:39;;;;;;;1.20;0.85;;;;;;;;;;4971079;28;20467;-86
2022/09/29 13:46:24;;;;;;;1.80;1.20;;;;;;;;;;4970927;28;20460;-86
2022/09/29 13:49:01;;;;;;;0.95;0.88;;;;;;;;;;5037682;28;20420;-87
2022/09/29 13:51:46;;;;;;;0.80;0.60;;;;;;;;;;4970905;28;20404;-87
2022/09/29 13:54:21;;;;;;;1.23;0.70;;;;;;;;;;4970902;28;20428;-87
2022/09/29 13:57:10;;;;;;;0.70;0.70;;;;;;;;;;4970935;28;20392;-86
2022/09/29 13:59:38;;;;;;;1.98;1.20;;;;;;;;;;4975912;28;20427;-86
2022/09/29 14:02:18;;;;;;;1.00;0.60;;;;;;;;;;4970849;28;20555;-87
2022/09/29 14:04:54;;;;;;;0.60;0.60;;;;;;;;;;4970748;28;20714;-87
2022/09/29 14:07:38;;;;;;;0.60;0.57;;;;;;;;;;4970998;28;20391;-88
2022/09/29 14:10:24;;;;;;;1.13;1.00;;;;;;;;;;4970740;28;20392;-88
2022/09/29 14:12:55;;;;;;;1.80;1.55;;;;;;;;;;4974207;28;20384;-87
2022/09/29 14:15:22;;;;;;;1.08;0.95;;;;;;;;;;4974231;28;20396;-88
2022/09/29 14:17:57;;;;;;;2.40;1.17;;;;;;;;;;4973802;28;20384;-88
2022/09/29 14:20:29;;;;;;;1.48;1.35;;;;;;;;;;4973585;28;20423;-87
2022/09/29 14:22:56;;;;;;;1.90;1.60;;;;;;;;;;4974129;28;20929;-88
2022/09/29 14:25:30;;;;;;;2.42;1.02;;;;;;;;;;4973896;28;20442;-88
2022/09/29 14:28:02;;;;;;;2.22;1.27;;;;;;;;;;4973929;28;20479;-88
2022/09/29 14:30:31;;;;;;;1.27;0.75;;;;;;;;;;4972558;28;20430;-88
2022/09/29 14:33:00;;;;;;;1.00;0.70;;;;;;;;;;4974021;28;20392;-89
2022/09/29 14:35:29;;;;;;;2.08;0.80;;;;;;;;;;4973739;28;20392;-88
2022/09/29 14:37:58;;;;;;;1.10;0.88;;;;;;;;;;4975676;28;20483;-88
2022/09/29 14:40:27;;;;;;;1.20;1.00;;;;;;;;;;4975887;28;20901;-89
2022/09/29 14:43:09;;;;;;;1.85;1.00;;;;;;;;;;4973619;28;20384;-88
2022/09/29 14:52:16;;;;;;;1.70;1.30;;;;;;;;;;4977952;28;20388;-88
2022/09/29 14:54:22;;;;;;;1.30;1.13;;;;;;;;;;4966204;28;20870;-89
2022/09/29 14:56:53;;;;;;;2.63;1.35;;;;;;;;;;4973530;28;20377;-88
2022/09/29 14:59:28;;;;;;;1.20;1.10;;;;;;;;;;4973445;28;20416;-88
2022/09/29 15:02:15;;;;;;;1.60;1.47;;;;;;;;;;4973306;28;20461;-88
2022/09/29 15:04:41;;;;;;;1.25;0.98;;;;;;;;;;4973653;28;20809;-88
2022/09/29 15:07:15;;;;;;;1.70;1.20;;;;;;;;;;4972986;28;20459;-88
2022/09/29 15:09:44;;;;;;;1.20;1.10;;;;;;;;;;4973411;28;20869;-87
2022/09/29 15:12:15;;;;;;;1.30;1.20;;;;;;;;;;4973220;28;20427;-87
2022/09/29 15:14:41;;;;;;;1.20;1.10;;;;;;;;;;4973230;28;20392;-89
2022/09/29 15:17:13;;;;;;;1.60;1.50;;;;;;;;;;4973245;28;20385;-88
2022/09/29 15:19:42;;;;;;;2.25;1.55;;;;;;;;;;4972145;28;20412;-88
2022/09/29 15:22:08;;;;;;;2.70;1.30;;;;;;;;;;4972886;28;20848;-90
2022/09/29 15:25:00;;;;;;;1.70;0.90;;;;;;;;;;4972577;28;21101;-88
2022/09/29 15:27:26;;;;;;;1.10;0.90;;;;;;;;;;4968689;28;20381;-88
2022/09/29 15:29:56;;;;;;;1.63;1.10;;;;;;;;;;4970146;28;20392;-87
2022/09/29 15:32:30;;;;;;;2.65;1.48;;;;;;;;;;4964252;28;20389;-89
2022/09/29 15:35:02;;;;;;;2.50;2.05;;;;;;;;;;4970216;28;20391;-89
2022/09/29 15:37:36;;;;;;;2.50;2.28;;;;;;;;;;5023625;28;20400;-88
2022/09/29 15:40:03;;;;;;;2.35;2.15;;;;;;;;;;4967737;28;20420;-85
2022/09/29 15:42:29;;;;;;;2.00;1.80;;;;;;;;;;4956890;28;20402;-84
2022/09/29 15:44:59;;;;;;;2.78;2.05;;;;;;;;;;4955875;28;20406;-85
2022/09/29 15:47:34;;;;;;;2.63;1.90;;;;;;;;;;4964417;28;20419;-85
2022/09/29 15:50:03;;;;;;;2.03;1.67;;;;;;;;;;4960648;28;20882;-85
2022/09/29 15:52:29;;;;;;;1.77;1.67;;;;;;;;;;4964205;28;20398;-85
2022/09/29 15:54:56;;;;;;;2.20;2.00;;;;;;;;;;4965516;28;20482;-84
2022/09/29 15:57:49;;;;;;;2.10;1.90;;;;;;;;;;4966237;28;20415;-85
2022/09/29 16:00:21;;;;;;;3.97;3.67;;;;;;;;;;4956107;28;20429;-85
2022/09/29 16:03:07;;;;;;;4.50;4.10;;;;;;;;;;4959729;28;20477;-85
2022/09/29 16:05:36;;;;;;;4.38;4.00;;;;;;;;;;4976615;28;20420;-85
2022/09/29 16:08:04;;;;;;;2.90;2.70;;;;;;;;;;4964625;28;20410;-85
2022/09/29 16:10:32;;;;;;;3.00;2.80;;;;;;;;;;4961672;28;20905;-84
2022/09/29 16:13:00;;;;;;;3.53;3.22;;;;;;;;;;4960557;28;20407;-83
2022/09/29 16:15:26;;;;;;;3.45;2.97;;;;;;;;;;4976319;28;20390;-83
2022/09/29 16:17:52;;;;;;;4.43;3.05;;;;;;;;;;4965250;28;20400;-83
2022/09/29 16:20:32;;;;;;;2.80;2.50;;;;;;;;;;4964892;28;20474;-83
2022/09/29 16:23:09;;;;;;;3.15;2.92;;;;;;;;;;4962421;28;20487;-83
2022/09/29 16:25:35;;;;;;;3.05;2.85;;;;;;;;;;4961632;28;20447;-84
2022/09/29 16:28:06;;;;;;;3.42;3.13;;;;;;;;;;4967968;28;20872;-85
2022/09/29 16:30:37;;;;;;;3.35;3.05;;;;;;;;;;4975096;28;20494;-84
2022/09/29 16:33:14;;;;;;;3.35;2.90;;;;;;;;;;4959076;28;20528;-85
2022/09/29 16:35:43;;;;;;;3.65;3.35;;;;;;;;;;4937362;28;20899;-85
2022/09/29 16:38:33;;;;;;;4.55;4.15;;;;;;;;;;4958186;28;20432;-87
2022/09/29 16:40:59;;;;;;;3.15;2.90;;;;;;;;;;4958669;28;20767;-85
2022/09/29 16:43:29;;;;;;;3.10;2.90;;;;;;;;;;5043448;28;20873;-85
2022/09/29 16:45:56;;;;;;;3.00;2.80;;;;;;;;;;4991538;28;20855;-86
2022/09/29 16:48:24;;;;;;;1.60;1.50;;;;;;;;;;4991331;28;20402;-85
2022/09/29 16:50:54;;;;;;;1.90;1.80;;;;;;;;;;4991091;28;20394;-85
2022/09/29 16:53:33;;;;;;;3.08;2.80;;;;;;;;;;4991308;28;20398;-87
2022/09/29 16:56:00;;;;;;;3.28;3.08;;;;;;;;;;4991060;28;20516;-86
2022/09/29 16:58:27;;;;;;;4.03;3.70;;;;;;;;;;5044406;28;20430;-87
2022/09/29 17:00:53;;;;;;;5.25;4.75;;;;;;;;;;4967210;28;20465;-87
2022/09/29 17:03:19;;;;;;;8.00;7.30;;;;;;;;;;4967719;28;20521;-87
2022/09/29 17:05:50;;;;;;;8.73;7.93;;;;;;;;;;4968937;28;20873;-87
2022/09/29 17:08:20;;;;;;;9.13;8.32;;;;;;;;;;4970571;28;20808;-87
2022/09/29 17:10:47;;;;;;;9.10;8.20;;;;;;;;;;4970045;28;20999;-83
2022/09/29 17:13:14;;;;;;;9.93;8.98;;;;;;;;;;4973178;28;20554;-83
2022/09/29 17:15:41;;;;;;;4.80;4.40;;;;;;;;;;4971522;28;20388;-84
2022/09/29 17:18:13;;;;;;;5.05;4.55;;;;;;;;;;4970641;28;20881;-88
2022/09/29 17:20:39;;;;;;;4.32;4.03;;;;;;;;;;4970137;28;20500;-87
2022/09/29 17:23:06;;;;;;;5.47;4.97;;;;;;;;;;4970781;28;20441;-87
2022/09/29 17:25:33;;;;;;;4.07;3.78;;;;;;;;;;4968898;28;20385;-88
2022/09/29 17:28:11;;;;;;;3.97;3.67;;;;;;;;;;4970889;28;20719;-86
2022/09/29 17:30:37;;;;;;;4.70;4.30;;;;;;;;;;4970520;28;20388;-85
2022/09/29 17:33:03;;;;;;;6.63;6.10;;;;;;;;;;4971075;28;20389;-86
2022/09/29 17:35:30;;;;;;;6.40;5.80;;;;;;;;;;4993924;28;20415;-87
2022/09/29 17:37:56;;;;;;;8.30;7.60;;;;;;;;;;4972307;28;20408;-86
2022/09/29 17:40:22;;;;;;;6.82;6.22;;;;;;;;;;5031853;28;20413;-85
2022/09/29 17:42:48;;;;;;;6.13;5.63;;;;;;;;;;4957365;28;20458;-86
2022/09/29 17:45:15;;;;;;;8.10;7.35;;;;;;;;;;4969379;28;20392;-87
2022/09/29 17:47:42;;;;;;;26.92;16.83;;;;;;;;;;5036305;28;20388;-88
2022/09/29 17:50:15;;;;;;;32.60;19.42;;;;;;;;;;4970161;28;20389;-87
2022/09/29 17:52:41;;;;;;;15.70;12.10;;;;;;;;;;4980323;28;20431;-88
2022/09/29 17:55:11;;;;;;;15.20;11.63;;;;;;;;;;4990392;28;20414;-88
2022/09/29 17:57:37;;;;;;;11.15;8.75;;;;;;;;;;4977350;28;20412;-89
2022/09/29 18:00:06;;;;;;;9.17;7.17;;;;;;;;;;4957730;28;20408;-91
2022/09/29 18:02:32;;;;;;;8.48;7.57;;;;;;;;;;4972694;28;20487;-89
2022/09/29 18:05:02;;;;;;;5.63;5.13;;;;;;;;;;5040319;28;20420;-89
2022/09/29 18:07:27;;;;;;;4.40;4.05;;;;;;;;;;4970214;28;20415;-87
2022/09/29 18:09:53;;;;;;;6.47;5.85;;;;;;;;;;5011012;28;20901;-90
2022/09/29 18:12:19;;;;;;;6.20;4.43;;;;;;;;;;4970051;28;20405;-89
2022/09/29 18:14:45;;;;;;;3.67;3.37;;;;;;;;;;4958659;28;20905;-87
2022/09/29 18:17:11;;;;;;;6.30;5.15;;;;;;;;;;4962490;28;20408;-88
2022/09/29 18:19:38;;;;;;;4.18;3.50;;;;;;;;;;4969618;28;20454;-88
2022/09/29 18:22:05;;;;;;;5.03;3.00;;;;;;;;;;4969870;28;20470;-89
2022/09/29 18:24:32;;;;;;;3.20;2.60;;;;;;;;;;4966443;28;20477;-91
2022/09/29 18:26:57;;;;;;;2.50;2.30;;;;;;;;;;4951598;28;20394;-89
2022/09/29 18:29:24;;;;;;;2.90;1.90;;;;;;;;;;4957420;28;20508;-88
2022/09/29 18:31:51;;;;;;;2.17;1.98;;;;;;;;;;4970646;28;20412;-89
2022/09/29 18:34:17;;;;;;;2.00;1.80;;;;;;;;;;4964716;28;20400;-89
2022/09/29 18:36:46;;;;;;;2.17;1.70;;;;;;;;;;4962515;28;20434;-88
2022/09/29 18:39:12;;;;;;;2.05;1.65;;;;;;;;;;4957196;28;20904;-89
2022/09/29 18:41:38;;;;;;;2.20;2.00;;;;;;;;;;5025422;28;20418;-88
2022/09/29 18:44:11;;;;;;;2.25;2.03;;;;;;;;;;5042279;28;20396;-90
2022/09/29 18:46:37;;;;;;;3.30;2.55;;;;;;;;;;4958260;28;20388;-91
2022/09/29 18:49:03;;;;;;;3.20;2.30;;;;;;;;;;5034739;28;20448;-89
2022/09/29 18:51:29;;;;;;;3.85;2.80;;;;;;;;;;5053792;28;20392;-89
2022/09/29 18:53:57;;;;;;;3.30;3.10;;;;;;;;;;4951173;28;20418;-89
2022/09/29 18:56:23;;;;;;;3.33;3.05;;;;;;;;;;4954597;28;20907;-89
2022/09/29 18:58:49;;;;;;;5.88;5.47;;;;;;;;;;5029864;28;20429;-89
2022/09/29 19:01:17;;;;;;;4.60;4.20;;;;;;;;;;4965488;28;20400;-91
2022/09/29 19:03:43;;;;;;;4.50;4.15;;;;;;;;;;5033212;28;20481;-87